Time;durP1;ratioP1;P1;durP2;ratioP2;P2;SDS_P1;SDS_P2;PMS_P1;PMS_P2;Temp;Humidity;BMP_temperature;BMP_pressure;BME280_temperature;BME280_humidity;BME280_pressure;Samples;Min_cycle;Max_cycle;Signal;HPM_P1;HPM_P2
2022/04/09 00:02:01;;;;;;;;;;;8.10;58.80;;;;;;4978512;28;19914;-88
2022/04/09 00:04:27;;;;;;;;;;;8.20;58.60;;;;;;4977564;28;19926;-88
2022/04/09 00:06:52;;;;;;;;;;;8.10;58.50;;;;;;4960681;28;19941;-88
2022/04/09 00:09:18;;;;;;;;;;;8.00;58.50;;;;;;4978211;28;20079;-88
2022/04/09 00:11:44;;;;;;;;;;;8.00;58.50;;;;;;4976597;28;19917;-88
2022/04/09 00:14:09;;;;;;;;;;;8.00;58.50;;;;;;4975475;28;19921;-88
2022/04/09 00:16:35;;;;;;;;;;;8.00;58.90;;;;;;4977930;28;19957;-88
2022/04/09 00:19:00;;;;;;;;;;;8.00;59.00;;;;;;4975494;28;19933;-89
2022/04/09 00:21:28;;;;;;;;;;;8.10;59.50;;;;;;4978171;28;19914;-89
2022/04/09 00:23:53;;;;;;;;;;;8.20;59.90;;;;;;4960731;28;20270;-89
2022/04/09 00:26:19;;;;;;;;;;;8.30;60.30;;;;;;4959340;28;19922;-88
2022/04/09 00:28:44;;;;;;;;;;;8.40;60.60;;;;;;4977019;28;20393;-89
2022/04/09 00:31:09;;;;;;;;;;;8.40;60.90;;;;;;4978193;28;19922;-88
2022/04/09 00:33:35;;;;;;;;;;;8.60;61.00;;;;;;4977637;28;19914;-88
2022/04/09 00:36:00;;;;;;;;;;;8.70;61.10;;;;;;4975128;28;20008;-88
2022/04/09 00:38:27;;;;;;;;;;;8.80;61.10;;;;;;4980092;28;20368;-88
2022/04/09 00:40:53;;;;;;;;;;;8.80;61.00;;;;;;4980767;28;19914;-87
2022/04/09 00:43:19;;;;;;;;;;;8.90;61.10;;;;;;4975334;28;19918;-87
2022/04/09 00:45:46;;;;;;;;;;;8.90;61.00;;;;;;4975288;28;19918;-88
2022/04/09 00:48:12;;;;;;;;;;;9.00;61.10;;;;;;4958602;28;20394;-88
2022/04/09 00:50:37;;;;;;;;;;;9.10;61.20;;;;;;4975867;28;19961;-88
2022/04/09 00:53:03;;;;;;;;;;;9.20;61.30;;;;;;4976337;28;20275;-88
2022/04/09 00:58:14;;;;;;;;;;;9.40;61.40;;;;;;4975565;28;19925;-88
2022/04/09 01:00:40;;;;;;;;;;;9.50;61.40;;;;;;4958543;28;20398;-88
2022/04/09 01:03:06;;;;;;;;;;;9.50;61.20;;;;;;4957473;28;19918;-88
2022/04/09 01:05:32;;;;;;;;;;;9.60;60.90;;;;;;4975551;28;19918;-88
2022/04/09 01:07:57;;;;;;;;;;;9.60;60.90;;;;;;4974184;28;20354;-88
2022/04/09 01:10:23;;;;;;;;;;;9.60;60.70;;;;;;4958949;28;20012;-89
2022/04/09 01:12:48;;;;;;;;;;;9.60;60.40;;;;;;4957843;28;20501;-88
2022/04/09 01:15:14;;;;;;;;;;;9.60;60.20;;;;;;4974065;28;19922;-88
2022/04/09 01:17:40;;;;;;;;;;;9.60;60.30;;;;;;4975277;28;20360;-89
2022/04/09 01:20:18;;;;;;;;;;;9.60;60.60;;;;;;4976786;28;19976;-89
2022/04/09 01:22:43;;;;;;;;;;;9.70;60.90;;;;;;4959690;28;19922;-88
2022/04/09 01:25:09;;;;;;;;;;;9.80;61.10;;;;;;4975594;28;19922;-88
2022/04/09 01:27:34;;;;;;;;;;;9.90;61.10;;;;;;4961613;28;20309;-88
2022/04/09 01:30:00;;;;;;;;;;;9.90;61.20;;;;;;4968809;28;19921;-88
2022/04/09 01:32:25;;;;;;;;;;;10.00;61.20;;;;;;4974558;28;19918;-88
2022/04/09 01:34:52;;;;;;;;;;;10.10;61.30;;;;;;4976149;28;19914;-88
2022/04/09 01:37:18;;;;;;;;;;;10.20;61.30;;;;;;4981606;28;19918;-88
2022/04/09 01:39:43;;;;;;;;;;;10.20;61.30;;;;;;4975792;28;19941;-88
2022/04/09 01:42:10;;;;;;;;;;;10.30;61.20;;;;;;4946205;28;19919;-88
2022/04/09 01:44:36;;;;;;;;;;;10.30;61.20;;;;;;4958705;28;20007;-88
2022/04/09 01:47:02;;;;;;;;;;;10.40;61.20;;;;;;4964912;28;19940;-88
2022/04/09 01:49:27;;;;;;;;;;;10.40;61.20;;;;;;4956243;28;20353;-88
2022/04/09 01:51:53;;;;;;;;;;;10.40;61.00;;;;;;4974649;28;19915;-87
2022/04/09 01:54:18;;;;;;;;;;;10.30;60.60;;;;;;4976288;28;19922;-88
2022/04/09 01:56:44;;;;;;;;;;;10.20;60.10;;;;;;4976818;28;19973;-88
2022/04/09 01:59:09;;;;;;;;;;;10.10;59.70;;;;;;4975702;28;20004;-88
2022/04/09 02:01:34;;;;;;;;;;;9.90;59.30;;;;;;4976596;28;20003;-89
2022/04/09 02:04:00;;;;;;;;;;;9.80;59.00;;;;;;4974842;28;19940;-88
2022/04/09 02:06:26;;;;;;;;;;;9.80;59.40;;;;;;4973922;28;19926;-88
2022/04/09 02:08:51;;;;;;;;;;;9.80;59.80;;;;;;4977618;28;19957;-89
2022/04/09 02:11:16;;;;;;;;;;;9.80;60.20;;;;;;4973178;28;19922;-88
2022/04/09 02:13:42;;;;;;;;;;;9.80;60.30;;;;;;4976867;28;19920;-88
2022/04/09 02:16:07;;;;;;;;;;;9.70;60.30;;;;;;4982865;28;19914;-89
2022/04/09 02:18:33;;;;;;;;;;;9.70;60.10;;;;;;4974801;28;19898;-87
2022/04/09 02:20:58;;;;;;;;;;;9.60;60.10;;;;;;4973994;28;19945;-89
2022/04/09 02:23:24;;;;;;;;;;;9.60;59.90;;;;;;4957913;28;19979;-89
2022/04/09 02:25:49;;;;;;;;;;;9.60;59.70;;;;;;4975799;28;19915;-89
2022/04/09 02:28:15;;;;;;;;;;;9.50;60.00;;;;;;4975583;28;19982;-88
2022/04/09 02:30:40;;;;;;;;;;;9.60;60.40;;;;;;4975894;28;19918;-87
2022/04/09 02:33:05;;;;;;;;;;;9.70;60.60;;;;;;4974549;28;19914;-88
2022/04/09 02:35:31;;;;;;;;;;;9.70;60.80;;;;;;4975427;28;20054;-88
2022/04/09 02:37:57;;;;;;;;;;;9.80;60.90;;;;;;4957318;28;19922;-88
2022/04/09 02:40:22;;;;;;;;;;;9.80;61.00;;;;;;4974224;28;19918;-88
2022/04/09 02:42:48;;;;;;;;;;;9.90;61.00;;;;;;4975941;28;20005;-88
2022/04/09 02:45:13;;;;;;;;;;;9.90;60.70;;;;;;4974979;28;19965;-87
2022/04/09 02:47:39;;;;;;;;;;;9.80;60.70;;;;;;4955288;29;19918;-88
2022/04/09 02:50:06;;;;;;;;;;;9.80;60.30;;;;;;4956077;29;20351;-88
2022/04/09 02:52:35;;;;;;;;;;;9.70;60.20;;;;;;4974077;28;19980;-88
2022/04/09 02:55:01;;;;;;;;;;;9.70;60.10;;;;;;4975635;28;19919;-88
2022/04/09 02:57:27;;;;;;;;;;;9.70;60.30;;;;;;4975590;28;19957;-88
2022/04/09 02:59:52;;;;;;;;;;;9.70;60.00;;;;;;4958839;28;19950;-88
2022/04/09 03:02:18;;;;;;;;;;;9.70;59.90;;;;;;4975771;28;19957;-88
2022/04/09 03:04:43;;;;;;;;;;;9.60;60.10;;;;;;4973992;28;20031;-88
2022/04/09 03:07:08;;;;;;;;;;;9.60;60.30;;;;;;4976538;28;19918;-89
2022/04/09 03:09:34;;;;;;;;;;;9.70;60.50;;;;;;4958942;28;19914;-88
2022/04/09 03:12:00;;;;;;;;;;;9.70;60.70;;;;;;4970065;28;19949;-88
2022/04/09 03:14:25;;;;;;;;;;;9.80;60.80;;;;;;4976832;28;19920;-88
2022/04/09 03:16:51;;;;;;;;;;;9.80;61.00;;;;;;4958075;28;20009;-89
2022/04/09 03:19:16;;;;;;;;;;;9.90;61.20;;;;;;4976174;28;19914;-88
2022/04/09 03:21:41;;;;;;;;;;;9.90;61.20;;;;;;4969946;28;20338;-89
2022/04/09 03:24:07;;;;;;;;;;;10.00;61.30;;;;;;4953118;28;19922;-89
2022/04/09 03:26:32;;;;;;;;;;;10.00;61.30;;;;;;4960231;28;19918;-88
2022/04/09 03:28:58;;;;;;;;;;;10.00;61.30;;;;;;4960924;28;19914;-88
2022/04/09 03:31:23;;;;;;;;;;;10.10;61.40;;;;;;4976933;28;19965;-88
2022/04/09 03:33:51;;;;;;;;;;;10.10;61.50;;;;;;4976061;28;19918;-88
2022/04/09 03:36:17;;;;;;;;;;;10.10;61.50;;;;;;4959539;28;20284;-88
2022/04/09 03:38:43;;;;;;;;;;;10.10;61.40;;;;;;4977085;28;20013;-88
2022/04/09 03:41:09;;;;;;;;;;;10.20;61.30;;;;;;4956898;28;19914;-89
2022/04/09 03:43:34;;;;;;;;;;;10.10;61.10;;;;;;4977047;28;19965;-88
2022/04/09 03:46:00;;;;;;;;;;;10.10;61.20;;;;;;4976979;28;20294;-88
2022/04/09 03:48:25;;;;;;;;;;;10.10;61.10;;;;;;4960562;28;19920;-89
2022/04/09 03:50:51;;;;;;;;;;;10.10;61.20;;;;;;4976455;28;19921;-88
2022/04/09 03:53:22;;;;;;;;;;;10.20;61.20;;;;;;4977866;28;19964;-88
2022/04/09 03:55:48;;;;;;;;;;;10.20;61.20;;;;;;4972685;28;19918;-88
2022/04/09 03:58:19;;;;;;;;;;;10.20;61.20;;;;;;4977325;28;19922;-88
2022/04/09 04:00:45;;;;;;;;;;;10.20;61.30;;;;;;4977740;28;20004;-88
2022/04/09 04:03:11;;;;;;;;;;;10.30;61.30;;;;;;4976802;28;19917;-88
2022/04/09 04:05:37;;;;;;;;;;;10.30;61.40;;;;;;4975759;28;19926;-88
2022/04/09 04:08:03;;;;;;;;;;;10.30;61.30;;;;;;4975612;28;19914;-88
2022/04/09 04:10:29;;;;;;;;;;;10.40;61.20;;;;;;4976287;28;19922;-87
2022/04/09 04:12:54;;;;;;;;;;;10.40;61.30;;;;;;4959171;28;19925;-89
2022/04/09 04:15:20;;;;;;;;;;;10.40;61.20;;;;;;4977332;28;19918;-89
2022/04/09 04:17:45;;;;;;;;;;;10.50;61.10;;;;;;4977321;28;19933;-89
2022/04/09 04:20:11;;;;;;;;;;;10.50;61.10;;;;;;4976039;28;19919;-89
2022/04/09 04:22:37;;;;;;;;;;;10.50;61.20;;;;;;4969796;28;19960;-87
2022/04/09 04:25:05;;;;;;;;;;;10.60;61.10;;;;;;4974487;28;20274;-88
2022/04/09 04:27:31;;;;;;;;;;;10.50;61.00;;;;;;4977121;28;19914;-89
2022/04/09 04:30:00;;;;;;;;;;;10.40;60.80;;;;;;4977142;28;19918;-87
2022/04/09 04:32:26;;;;;;;;;;;10.40;60.50;;;;;;4975885;28;19924;-87
2022/04/09 04:34:51;;;;;;;;;;;10.30;60.40;;;;;;4970746;28;19914;-87
2022/04/09 04:37:17;;;;;;;;;;;10.30;60.20;;;;;;4979153;28;19972;-89
2022/04/09 04:39:43;;;;;;;;;;;10.30;60.50;;;;;;4980148;28;19914;-89
2022/04/09 04:42:08;;;;;;;;;;;10.30;60.60;;;;;;4976121;28;19918;-89
2022/04/09 04:44:34;;;;;;;;;;;10.30;60.80;;;;;;4975572;28;19925;-89
2022/04/09 04:46:59;;;;;;;;;;;10.30;60.60;;;;;;4974991;28;20290;-88
2022/04/09 04:49:25;;;;;;;;;;;10.30;60.60;;;;;;4976095;28;20339;-88
2022/04/09 04:51:50;;;;;;;;;;;10.20;60.50;;;;;;4957561;28;19918;-88
2022/04/09 04:54:16;;;;;;;;;;;10.20;60.10;;;;;;4959293;28;19914;-88
2022/04/09 04:56:42;;;;;;;;;;;10.20;60.20;;;;;;4975690;28;19919;-88
2022/04/09 04:59:07;;;;;;;;;;;10.10;60.40;;;;;;4973532;28;19964;-88
2022/04/09 05:01:34;;;;;;;;;;;10.20;60.50;;;;;;4975651;28;19925;-89
2022/04/09 05:04:00;;;;;;;;;;;10.20;60.80;;;;;;4974040;28;19925;-87
2022/04/09 05:06:26;;;;;;;;;;;10.30;61.00;;;;;;4975540;28;19918;-89
2022/04/09 05:08:51;;;;;;;;;;;10.30;61.10;;;;;;4975228;28;19942;-88
2022/04/09 05:11:17;;;;;;;;;;;10.40;61.20;;;;;;4957621;28;19922;-87
2022/04/09 05:13:42;;;;;;;;;;;10.50;61.20;;;;;;4974616;28;19914;-90
2022/04/09 05:16:08;;;;;;;;;;;10.60;61.30;;;;;;4944751;28;19914;-88
2022/04/09 05:18:34;;;;;;;;;;;10.70;61.30;;;;;;4957963;28;19914;-88
2022/04/09 05:20:59;;;;;;;;;;;10.70;61.30;;;;;;4972687;28;20350;-89
2022/04/09 05:23:25;;;;;;;;;;;10.80;61.40;;;;;;4972483;28;19925;-89
2022/04/09 05:25:50;;;;;;;;;;;10.80;61.30;;;;;;4972536;28;19952;-88
2022/04/09 05:28:16;;;;;;;;;;;10.80;61.20;;;;;;4975412;28;19945;-89
2022/04/09 05:30:44;;;;;;;;;;;10.80;61.30;;;;;;4972360;28;20008;-89
2022/04/09 05:33:09;;;;;;;;;;;10.80;61.50;;;;;;4958628;28;19921;-88
2022/04/09 05:35:35;;;;;;;;;;;10.90;62.20;;;;;;4973836;28;19914;-89
2022/04/09 05:38:00;;;;;;;;;;;11.20;63.50;;;;;;4975480;28;20009;-88
2022/04/09 05:40:26;;;;;;;;;;;11.50;63.60;;;;;;4975274;28;19914;-87
2022/04/09 05:42:51;;;;;;;;;;;11.80;64.20;;;;;;4975197;28;19996;-88
2022/04/09 05:45:17;;;;;;;;;;;12.20;64.80;;;;;;4975026;28;19926;-88
2022/04/09 05:47:44;;;;;;;;;;;12.60;64.90;;;;;;4964790;28;19918;-89
2022/04/09 05:50:10;;;;;;;;;;;12.80;63.70;;;;;;4959265;28;19918;-89
2022/04/09 05:52:36;;;;;;;;;;;13.00;63.10;;;;;;4974435;28;19921;-88
2022/04/09 05:55:03;;;;;;;;;;;13.00;62.20;;;;;;4974901;28;19919;-89
2022/04/09 05:57:29;;;;;;;;;;;13.00;61.60;;;;;;4971988;28;19914;-89
2022/04/09 05:59:55;;;;;;;;;;;12.90;61.00;;;;;;4971514;28;19965;-88
2022/04/09 06:02:20;;;;;;;;;;;12.80;61.00;;;;;;4939347;29;19944;-89
2022/04/09 06:04:45;;;;;;;;;;;12.80;61.10;;;;;;4969910;28;19929;-87
2022/04/09 06:07:13;;;;;;;;;;;12.80;61.00;;;;;;4973190;28;20378;-87
2022/04/09 06:09:40;;;;;;;;;;;12.70;61.20;;;;;;4957260;28;19919;-88
2022/04/09 06:12:07;;;;;;;;;;;12.70;61.10;;;;;;4974130;28;19914;-87
2022/04/09 06:14:33;;;;;;;;;;;12.70;61.50;;;;;;4954013;28;19983;-89
2022/04/09 06:16:58;;;;;;;;;;;12.80;61.50;;;;;;4964691;28;19922;-90
2022/04/09 06:19:24;;;;;;;;;;;12.90;61.90;;;;;;4973651;28;20390;-88
2022/04/09 06:21:49;;;;;;;;;;;13.10;62.90;;;;;;4971450;28;19941;-88
2022/04/09 06:24:15;;;;;;;;;;;13.30;62.80;;;;;;4974554;28;20331;-88
2022/04/09 06:26:40;;;;;;;;;;;13.40;62.40;;;;;;4975323;28;19965;-88
2022/04/09 06:29:05;;;;;;;;;;;13.40;61.70;;;;;;4975347;28;19915;-88
2022/04/09 06:31:31;;;;;;;;;;;13.50;61.30;;;;;;4958688;28;19914;-87
2022/04/09 06:33:56;;;;;;;;;;;13.50;61.40;;;;;;4976360;28;19918;-88
2022/04/09 06:36:22;;;;;;;;;;;13.60;61.30;;;;;;4974640;28;19948;-88
2022/04/09 06:38:48;;;;;;;;;;;13.70;61.30;;;;;;4957456;28;20012;-88
2022/04/09 06:41:14;;;;;;;;;;;13.70;60.80;;;;;;4976469;28;19914;-87
2022/04/09 06:43:40;;;;;;;;;;;13.80;61.30;;;;;;4975431;28;19960;-89
2022/04/09 06:46:06;;;;;;;;;;;13.80;61.00;;;;;;4957831;28;19950;-89
2022/04/09 06:48:31;;;;;;;;;;;13.90;61.30;;;;;;4975088;28;19918;-89
2022/04/09 06:50:58;;;;;;;;;;;14.00;61.30;;;;;;4976582;28;19922;-88
2022/04/09 06:53:24;;;;;;;;;;;14.10;60.80;;;;;;4974794;28;19960;-89
2022/04/09 06:55:49;;;;;;;;;;;14.20;60.90;;;;;;4958341;28;19914;-89
2022/04/09 06:58:15;;;;;;;;;;;14.20;60.70;;;;;;4976439;28;19922;-89
2022/04/09 07:00:40;;;;;;;;;;;14.20;61.00;;;;;;4977902;28;19924;-90
2022/04/09 07:03:06;;;;;;;;;;;14.40;62.10;;;;;;4976371;28;19931;-89
2022/04/09 07:05:31;;;;;;;;;;;14.60;62.40;;;;;;4977389;28;19926;-87
2022/04/09 07:07:57;;;;;;;;;;;14.80;62.00;;;;;;4977580;28;19922;-88
2022/04/09 07:10:22;;;;;;;;;;;15.00;62.60;;;;;;4959592;28;19973;-88
2022/04/09 07:12:48;;;;;;;;;;;15.20;62.60;;;;;;4977226;28;19945;-89
2022/04/09 07:15:13;;;;;;;;;;;15.30;61.80;;;;;;4975873;28;19953;-87
2022/04/09 07:17:41;;;;;;;;;;;15.50;61.60;;;;;;4962372;28;19918;-89
2022/04/09 07:20:07;;;;;;;;;;;15.60;61.00;;;;;;4959860;28;19942;-88
2022/04/09 07:22:33;;;;;;;;;;;15.70;60.40;;;;;;4982012;28;20004;-88
2022/04/09 07:25:00;;;;;;;;;;;15.70;59.20;;;;;;4959213;28;19953;-88
2022/04/09 07:27:36;;;;;;;;;;;15.70;59.40;;;;;;4977133;28;20329;-89
2022/04/09 07:30:05;;;;;;;;;;;15.70;58.60;;;;;;4974273;28;19921;-89
2022/04/09 07:32:30;;;;;;;;;;;15.80;59.20;;;;;;4977495;28;19926;-90
2022/04/09 07:34:56;;;;;;;;;;;16.00;59.70;;;;;;4960633;28;19988;-89
2022/04/09 07:37:21;;;;;;;;;;;16.00;59.30;;;;;;4959964;28;19918;-87
2022/04/09 07:39:47;;;;;;;;;;;16.20;58.70;;;;;;4973588;28;20000;-89
2022/04/09 07:42:12;;;;;;;;;;;16.20;58.90;;;;;;4958212;28;19919;-88
2022/04/09 07:44:38;;;;;;;;;;;16.30;58.50;;;;;;4976819;28;19925;-88
2022/04/09 07:47:03;;;;;;;;;;;16.40;57.90;;;;;;4977206;28;19919;-88
2022/04/09 07:49:29;;;;;;;;;;;16.50;57.70;;;;;;4976180;28;19922;-88
2022/04/09 07:51:54;;;;;;;;;;;16.60;57.60;;;;;;4974687;28;19929;-89
2022/04/09 07:54:20;;;;;;;;;;;16.70;57.30;;;;;;4976458;28;19915;-88
2022/04/09 07:56:46;;;;;;;;;;;16.70;56.90;;;;;;4977464;28;19922;-89
2022/04/09 07:59:11;;;;;;;;;;;16.80;56.50;;;;;;4977139;28;19910;-87
2022/04/09 08:01:37;;;;;;;;;;;16.80;55.90;;;;;;4959720;28;19923;-88
2022/04/09 08:04:03;;;;;;;;;;;16.80;56.50;;;;;;4976948;28;19922;-87
2022/04/09 08:06:29;;;;;;;;;;;17.10;56.60;;;;;;4975980;28;19944;-89
2022/04/09 08:08:54;;;;;;;;;;;17.30;55.50;;;;;;4969609;28;19914;-89
2022/04/09 08:11:19;;;;;;;;;;;17.40;54.20;;;;;;4972605;28;21675;-90
2022/04/09 08:13:45;;;;;;;;;;;17.60;55.30;;;;;;4973311;28;20456;-88
2022/04/09 08:16:11;;;;;;;;;;;17.70;53.80;;;;;;4957776;28;19945;-89
2022/04/09 08:18:39;;;;;;;;;;;17.80;53.60;;;;;;4978316;28;19965;-90
2022/04/09 08:21:04;;;;;;;;;;;18.00;54.00;;;;;;4975589;28;19918;-89
2022/04/09 08:23:31;;;;;;;;;;;18.40;56.20;;;;;;4975231;28;20392;-90
2022/04/09 08:25:57;;;;;;;;;;;18.80;56.00;;;;;;4954105;28;19927;-90
2022/04/09 08:28:24;;;;;;;;;;;19.40;56.40;;;;;;4959636;28;20294;-90
2022/04/09 08:30:51;;;;;;;;;;;20.20;55.40;;;;;;4974390;28;19914;-90
2022/04/09 08:33:16;;;;;;;;;;;20.90;55.20;;;;;;4979958;28;19984;-90
2022/04/09 08:35:43;;;;;;;;;;;21.60;52.50;;;;;;4977032;28;19926;-90
2022/04/09 08:38:09;;;;;;;;;;;22.30;50.50;;;;;;4973768;28;19948;-89
2022/04/09 08:40:36;;;;;;;;;;;23.10;47.90;;;;;;4976755;28;19945;-90
2022/04/09 08:43:03;;;;;;;;;;;23.50;44.40;;;;;;4964293;28;19929;-90
2022/04/09 08:45:33;;;;;;;;;;;24.20;44.60;;;;;;4955329;29;19926;-90
2022/04/09 08:47:59;;;;;;;;;;;24.50;42.70;;;;;;4955023;29;20382;-91
2022/04/09 08:50:26;;;;;;;;;;;24.30;41.50;;;;;;4939575;29;19973;-90
2022/04/09 08:52:51;;;;;;;;;;;23.90;40.40;;;;;;4955891;28;19914;-91
2022/04/09 08:55:17;;;;;;;;;;;23.80;41.40;;;;;;4973226;28;20345;-90
2022/04/09 08:57:43;;;;;;;;;;;23.80;39.30;;;;;;4957378;28;19922;-89
2022/04/09 09:00:13;;;;;;;;;;;23.30;37.90;;;;;;4975956;28;20330;-92
2022/04/09 09:02:49;;;;;;;;;;;22.60;37.10;;;;;;4976261;28;19957;-90
2022/04/09 09:05:28;;;;;;;;;;;21.70;38.10;;;;;;4957339;28;20486;-90
2022/04/09 09:07:53;;;;;;;;;;;20.90;40.70;;;;;;4973839;28;19922;-89
2022/04/09 09:10:19;;;;;;;;;;;20.80;43.20;;;;;;4975755;28;20372;-90
2022/04/09 09:12:55;;;;;;;;;;;20.90;43.00;;;;;;4968404;28;19906;-91
2022/04/09 09:15:21;;;;;;;;;;;21.20;42.10;;;;;;4955082;29;20428;-90
2022/04/09 09:17:47;;;;;;;;;;;21.60;41.50;;;;;;4957323;29;19919;-90
2022/04/09 09:20:15;;;;;;;;;;;22.20;40.30;;;;;;4954011;28;20394;-89
2022/04/09 09:22:42;;;;;;;;;;;22.60;38.70;;;;;;4967089;28;19915;-91
2022/04/09 09:25:09;;;;;;;;;;;22.90;37.40;;;;;;4953174;28;19933;-91
2022/04/09 09:27:35;;;;;;;;;;;23.00;36.90;;;;;;4958996;28;19914;-90
2022/04/09 09:30:00;;;;;;;;;;;22.90;35.40;;;;;;4975411;28;20009;-91
2022/04/09 09:32:27;;;;;;;;;;;23.10;35.80;;;;;;4975771;28;20023;-89
2022/04/09 09:34:54;;;;;;;;;;;23.50;36.20;;;;;;4973319;28;19922;-89
2022/04/09 09:37:24;;;;;;;;;;;23.60;34.60;;;;;;4974950;28;19914;-90
2022/04/09 09:39:49;;;;;;;;;;;23.70;34.40;;;;;;4972869;28;19925;-91
2022/04/09 09:42:22;;;;;;;;;;;23.70;33.80;;;;;;4967882;28;19919;-92
2022/04/09 09:44:48;;;;;;;;;;;23.80;34.00;;;;;;4956309;29;20286;-89
2022/04/09 09:47:17;;;;;;;;;;;23.70;33.30;;;;;;4939333;29;19927;-92
2022/04/09 09:49:56;;;;;;;;;;;23.60;33.80;;;;;;4955048;28;20006;-90
2022/04/09 09:52:30;;;;;;;;;;;23.50;33.30;;;;;;4958793;28;19940;-91
2022/04/09 09:54:57;;;;;;;;;;;23.40;32.30;;;;;;4964290;28;19922;-90
2022/04/09 09:57:24;;;;;;;;;;;23.20;33.00;;;;;;4974738;28;19914;-89
2022/04/09 09:59:51;;;;;;;;;;;23.40;33.00;;;;;;4955921;28;20402;-89
2022/04/09 10:02:21;;;;;;;;;;;23.90;32.60;;;;;;4957098;28;19918;-88
2022/04/09 10:04:47;;;;;;;;;;;24.20;31.50;;;;;;4982298;28;20463;-91
2022/04/09 10:07:14;;;;;;;;;;;24.20;30.40;;;;;;4956046;28;20005;-89
2022/04/09 10:09:39;;;;;;;;;;;24.00;30.10;;;;;;4972873;28;19914;-90
2022/04/09 10:12:08;;;;;;;;;;;24.10;30.50;;;;;;4973056;28;20267;-90
2022/04/09 10:14:35;;;;;;;;;;;24.30;30.20;;;;;;4973170;28;19921;-91
2022/04/09 10:17:03;;;;;;;;;;;24.80;29.80;;;;;;4955034;28;19969;-92
2022/04/09 10:19:29;;;;;;;;;;;25.40;30.00;;;;;;4972783;28;19921;-90
2022/04/09 10:21:55;;;;;;;;;;;26.10;28.70;;;;;;4973324;28;19918;-89
2022/04/09 10:24:25;;;;;;;;;;;26.50;28.50;;;;;;4973106;28;19921;-89
2022/04/09 10:26:53;;;;;;;;;;;26.90;27.30;;;;;;4977096;28;20436;-89
2022/04/09 10:29:18;;;;;;;;;;;27.00;26.30;;;;;;4972195;28;19918;-90
2022/04/09 10:31:49;;;;;;;;;;;26.90;26.10;;;;;;4952606;28;19941;-91
2022/04/09 10:34:16;;;;;;;;;;;26.50;24.80;;;;;;4955632;28;19929;-91
2022/04/09 10:36:44;;;;;;;;;;;25.30;30.80;;;;;;4976348;28;20329;-91
2022/04/09 10:39:22;;;;;;;;;;;23.40;37.00;;;;;;4981614;28;19924;-93
2022/04/09 10:41:54;;;;;;;;;;;22.10;40.60;;;;;;4980755;28;19922;-92
2022/04/09 10:44:38;;;;;;;;;;;21.00;43.60;;;;;;4980679;28;19926;-90
2022/04/09 10:47:04;;;;;;;;;;;20.30;45.80;;;;;;4964656;28;19922;-93
2022/04/09 10:49:30;;;;;;;;;;;19.70;48.10;;;;;;4980730;28;20286;-91
2022/04/09 10:52:01;;;;;;;;;;;19.30;50.40;;;;;;4982416;28;19921;-92
2022/04/09 10:54:27;;;;;;;;;;;19.50;53.90;;;;;;4961880;28;19918;-92
2022/04/09 10:56:52;;;;;;;;;;;19.90;55.20;;;;;;4976932;28;20323;-91
2022/04/09 10:59:17;;;;;;;;;;;20.40;56.00;;;;;;4977624;28;19922;-91
2022/04/09 11:01:46;;;;;;;;;;;21.10;56.60;;;;;;4960895;28;19918;-91
2022/04/09 11:04:31;;;;;;;;;;;21.70;56.30;;;;;;4960246;28;19918;-90
2022/04/09 11:07:01;;;;;;;;;;;22.30;55.20;;;;;;4958728;28;19934;-91
2022/04/09 11:09:38;;;;;;;;;;;22.80;55.10;;;;;;4976212;28;19945;-92
2022/04/09 11:12:04;;;;;;;;;;;23.20;54.70;;;;;;4976885;28;19961;-91
2022/04/09 11:14:29;;;;;;;;;;;23.70;54.10;;;;;;4973065;28;19914;-91
2022/04/09 11:16:55;;;;;;;;;;;24.00;54.80;;;;;;4959264;28;19922;-91
2022/04/09 11:19:21;;;;;;;;;;;24.30;54.00;;;;;;4959936;28;19918;-92
2022/04/09 11:21:50;;;;;;;;;;;24.70;52.80;;;;;;4959349;28;19914;-91
2022/04/09 11:24:15;;;;;;;;;;;25.20;52.00;;;;;;4974953;28;19918;-91
2022/04/09 11:26:41;;;;;;;;;;;25.50;49.90;;;;;;4975197;28;19933;-91
2022/04/09 11:29:12;;;;;;;;;;;25.80;50.60;;;;;;4974216;28;20005;-90
2022/04/09 11:31:45;;;;;;;;;;;26.00;49.30;;;;;;4976237;28;20317;-91
2022/04/09 11:34:12;;;;;;;;;;;26.20;50.40;;;;;;4976890;28;19918;-91
2022/04/09 11:36:37;;;;;;;;;;;26.30;49.10;;;;;;4975553;28;19945;-90
2022/04/09 11:39:04;;;;;;;;;;;26.50;47.30;;;;;;4976867;28;19925;-90
2022/04/09 11:41:29;;;;;;;;;;;26.80;47.00;;;;;;4975594;28;20041;-91
2022/04/09 11:43:55;;;;;;;;;;;27.20;46.80;;;;;;4976680;28;20382;-91
2022/04/09 11:46:21;;;;;;;;;;;27.60;46.60;;;;;;4976043;28;19929;-90
2022/04/09 11:48:59;;;;;;;;;;;27.80;44.80;;;;;;4975980;28;20625;-90
2022/04/09 11:51:25;;;;;;;;;;;27.60;42.70;;;;;;4977406;28;19922;-91
2022/04/09 11:53:50;;;;;;;;;;;26.70;40.60;;;;;;4978814;28;20010;-93
2022/04/09 11:56:16;;;;;;;;;;;24.40;36.90;;;;;;4981426;28;20366;-91
2022/04/09 11:58:41;;;;;;;;;;;22.00;41.10;;;;;;4981257;28;19914;-92
2022/04/09 12:01:09;;;;;;;;;;;20.80;46.50;;;;;;4975426;28;19930;-92
2022/04/09 12:03:36;;;;;;;;;;;20.20;49.80;;;;;;4977683;28;19914;-91
2022/04/09 12:06:02;;;;;;;;;;;20.40;51.90;;;;;;4977381;28;19919;-90
2022/04/09 12:08:29;;;;;;;;;;;21.00;53.20;;;;;;4979191;28;20436;-89
2022/04/09 12:11:01;;;;;;;;;;;21.30;51.90;;;;;;4977820;28;19918;-90
2022/04/09 12:13:33;;;;;;;;;;;21.10;51.10;;;;;;4960220;28;19917;-90
2022/04/09 12:16:13;;;;;;;;;;;20.70;51.40;;;;;;4977418;28;19933;-89
2022/04/09 12:18:39;;;;;;;;;;;20.30;52.30;;;;;;4974504;28;19925;-89
2022/04/09 12:21:20;;;;;;;;;;;19.90;52.50;;;;;;4974272;28;19914;-89
2022/04/09 12:23:46;;;;;;;;;;;19.50;52.20;;;;;;4973709;28;20294;-90
2022/04/09 12:26:22;;;;;;;;;;;19.20;52.80;;;;;;4975080;28;19929;-90
2022/04/09 12:29:03;;;;;;;;;;;19.20;53.80;;;;;;4975097;28;19958;-89
2022/04/09 12:31:29;;;;;;;;;;;19.80;55.40;;;;;;4958596;28;19922;-90
2022/04/09 12:33:58;;;;;;;;;;;20.70;54.80;;;;;;4974952;28;19941;-90
2022/04/09 12:36:24;;;;;;;;;;;21.20;53.20;;;;;;4958443;28;19965;-90
2022/04/09 12:38:49;;;;;;;;;;;21.60;51.60;;;;;;4957610;28;19956;-91
2022/04/09 12:41:14;;;;;;;;;;;22.10;52.20;;;;;;4974459;28;19925;-89
2022/04/09 12:43:41;;;;;;;;;;;22.70;52.90;;;;;;4958155;28;19921;-90
2022/04/09 12:46:13;;;;;;;;;;;23.30;51.50;;;;;;4976865;28;19922;-89
2022/04/09 12:48:42;;;;;;;;;;;23.80;51.10;;;;;;4961667;28;20617;-90
2022/04/09 12:51:08;;;;;;;;;;;24.00;49.30;;;;;;4958473;28;19922;-91
2022/04/09 12:53:33;;;;;;;;;;;24.20;47.90;;;;;;4977598;28;19921;-90
2022/04/09 12:56:03;;;;;;;;;;;24.50;46.70;;;;;;4961105;28;19918;-90
2022/04/09 12:58:28;;;;;;;;;;;24.80;45.80;;;;;;4975662;28;19914;-90
2022/04/09 13:00:54;;;;;;;;;;;24.50;40.10;;;;;;4957584;28;19920;-90
2022/04/09 13:03:19;;;;;;;;;;;23.70;37.60;;;;;;4959832;28;19916;-89
2022/04/09 13:05:45;;;;;;;;;;;22.30;37.20;;;;;;4958392;28;19922;-89
2022/04/09 13:08:11;;;;;;;;;;;20.80;38.50;;;;;;4976439;28;19919;-89
2022/04/09 13:10:36;;;;;;;;;;;19.30;39.40;;;;;;4959213;28;20378;-90
2022/04/09 13:13:04;;;;;;;;;;;17.90;41.40;;;;;;4958968;28;19914;-92
2022/04/09 13:15:31;;;;;;;;;;;16.70;43.40;;;;;;4978909;28;19921;-92
2022/04/09 13:17:56;;;;;;;;;;;15.30;43.90;;;;;;4979981;28;19918;-92
2022/04/09 13:20:22;;;;;;;;;;;14.10;45.70;;;;;;4962216;28;20334;-90
2022/04/09 13:22:47;;;;;;;;;;;13.00;45.50;;;;;;4975783;28;19929;-89
2022/04/09 13:25:17;;;;;;;;;;;11.90;46.70;;;;;;4978343;28;19925;-93
2022/04/09 13:27:44;;;;;;;;;;;11.00;48.30;;;;;;4960736;28;19922;-93
2022/04/09 13:30:13;;;;;;;;;;;10.30;50.00;;;;;;4961789;28;20334;-92
2022/04/09 13:32:39;;;;;;;;;;;9.70;51.60;;;;;;4959165;28;20717;-92
2022/04/09 13:35:04;;;;;;;;;;;9.30;53.10;;;;;;4976851;28;19918;-91
2022/04/09 13:37:30;;;;;;;;;;;9.00;54.30;;;;;;4977552;28;19918;-93
2022/04/09 13:39:59;;;;;;;;;;;8.70;55.40;;;;;;4960875;28;19924;-92
2022/04/09 13:42:25;;;;;;;;;;;8.50;56.20;;;;;;4979192;28;19910;-91
2022/04/09 13:44:50;;;;;;;;;;;8.50;56.90;;;;;;4977988;28;19992;-91
2022/04/09 13:47:16;;;;;;;;;;;8.50;57.40;;;;;;4960771;28;20587;-92
2022/04/09 13:49:41;;;;;;;;;;;8.70;57.70;;;;;;4960274;28;19898;-92
2022/04/09 13:52:07;;;;;;;;;;;8.90;57.60;;;;;;4960455;28;19910;-92
2022/04/09 13:54:33;;;;;;;;;;;9.30;57.70;;;;;;4958285;28;19922;-91
2022/04/09 13:56:59;;;;;;;;;;;9.50;57.50;;;;;;4977904;28;20409;-89
2022/04/09 13:59:25;;;;;;;;;;;9.80;57.30;;;;;;4976271;28;20385;-91
2022/04/09 14:01:50;;;;;;;;;;;10.00;57.20;;;;;;4959583;28;19965;-90
2022/04/09 14:04:15;;;;;;;;;;;10.20;57.10;;;;;;4976545;28;19926;-90
2022/04/09 14:06:41;;;;;;;;;;;10.40;57.00;;;;;;4967911;28;20326;-90
2022/04/09 14:09:06;;;;;;;;;;;10.70;57.20;;;;;;4973376;28;19941;-88
2022/04/09 14:11:32;;;;;;;;;;;10.80;57.10;;;;;;4973622;28;19944;-89
2022/04/09 14:13:58;;;;;;;;;;;11.00;57.40;;;;;;4974170;28;19922;-89
2022/04/09 14:16:23;;;;;;;;;;;11.20;57.20;;;;;;4971417;28;19922;-89
2022/04/09 14:18:49;;;;;;;;;;;11.20;57.70;;;;;;4973317;28;19918;-88
2022/04/09 14:21:14;;;;;;;;;;;11.30;58.10;;;;;;4969513;28;19929;-90